Time;durP1;ratioP1;P1;durP2;ratioP2;P2;SDS_P1;SDS_P2;PMS_P1;PMS_P2;Temp;Humidity;BMP_temperature;BMP_pressure;BME280_temperature;BME280_humidity;BME280_pressure;Samples;Min_cycle;Max_cycle;Signal;HPM_P1;HPM_P2
2022/12/10 00:01:16;;;;;;;27.15;18.27;;;5.50;99.90;;;;;;5031762;28;20577;-65
2022/12/10 00:03:43;;;;;;;28.88;18.35;;;5.50;99.90;;;;;;5032350;28;20186;-66
2022/12/10 00:06:14;;;;;;;32.35;18.67;;;5.50;99.90;;;;;;5032800;28;20652;-65
2022/12/10 00:08:41;;;;;;;30.27;18.77;;;5.50;99.90;;;;;;5032900;28;20159;-65
2022/12/10 00:11:10;;;;;;;29.85;21.25;;;5.40;99.90;;;;;;5030713;28;20201;-65
2022/12/10 00:13:37;;;;;;;32.20;20.40;;;5.40;99.90;;;;;;5031359;28;20193;-65
2022/12/10 00:16:04;;;;;;;33.25;19.75;;;5.50;99.90;;;;;;5031884;28;20182;-65
2022/12/10 00:18:30;;;;;;;33.90;23.33;;;5.50;99.90;;;;;;5031184;28;20182;-66
2022/12/10 00:20:56;;;;;;;36.60;22.03;;;5.50;99.90;;;;;;5030870;28;20190;-66
2022/12/10 00:23:22;;;;;;;36.40;22.07;;;5.50;99.90;;;;;;5033122;28;20477;-65
2022/12/10 00:25:48;;;;;;;36.20;21.20;;;5.50;99.90;;;;;;5030806;28;20191;-66
2022/12/10 00:28:14;;;;;;;34.50;21.53;;;5.50;99.90;;;;;;5031845;28;21280;-66
2022/12/10 00:30:40;;;;;;;34.50;22.70;;;5.50;99.90;;;;;;5029735;28;20456;-66
2022/12/10 00:33:05;;;;;;;35.90;22.50;;;5.50;99.90;;;;;;5031631;28;20232;-65
2022/12/10 00:35:35;;;;;;;35.53;22.63;;;5.50;99.90;;;;;;5030802;28;20187;-66
2022/12/10 00:38:03;;;;;;;30.60;20.38;;;5.50;99.90;;;;;;5030777;28;20179;-65
2022/12/10 00:40:29;;;;;;;32.75;20.92;;;5.50;99.90;;;;;;5029802;28;20261;-65
2022/12/10 00:42:54;;;;;;;32.40;20.77;;;5.50;99.90;;;;;;5031893;28;20274;-65
2022/12/10 00:45:20;;;;;;;35.30;21.80;;;5.50;99.90;;;;;;5031133;28;20627;-66
2022/12/10 00:47:45;;;;;;;38.60;22.60;;;5.50;99.90;;;;;;5030809;28;20588;-65
2022/12/10 00:50:11;;;;;;;35.03;22.27;;;5.40;99.90;;;;;;5030576;28;20181;-66
2022/12/10 00:52:37;;;;;;;33.90;22.00;;;5.50;99.90;;;;;;5032036;28;20213;-66
2022/12/10 00:55:03;;;;;;;34.00;21.17;;;5.50;99.90;;;;;;5019937;28;20175;-66
2022/12/10 00:57:29;;;;;;;36.38;21.55;;;5.50;99.90;;;;;;5015946;28;20190;-65
2022/12/10 00:59:54;;;;;;;30.60;20.60;;;5.50;99.90;;;;;;5032109;28;20175;-65
2022/12/10 01:02:20;;;;;;;38.67;22.23;;;5.50;99.90;;;;;;5031757;28;20229;-65
2022/12/10 01:04:46;;;;;;;33.08;20.55;;;5.60;99.90;;;;;;5027905;28;21754;-65
2022/12/10 01:07:13;;;;;;;34.17;22.20;;;5.50;99.90;;;;;;5012880;28;20179;-65
2022/12/10 01:09:39;;;;;;;31.02;20.08;;;5.50;99.90;;;;;;5026992;28;20171;-65
2022/12/10 01:12:05;;;;;;;30.27;21.20;;;5.50;99.90;;;;;;5029637;28;20213;-65
2022/12/10 01:14:33;;;;;;;32.88;20.02;;;5.50;99.90;;;;;;5029906;28;20175;-65
2022/12/10 01:17:04;;;;;;;29.77;19.85;;;5.50;99.90;;;;;;5032479;28;20171;-65
2022/12/10 01:19:30;;;;;;;32.90;21.20;;;5.50;99.90;;;;;;5031282;28;20189;-66
2022/12/10 01:21:57;;;;;;;33.15;22.50;;;5.60;99.90;;;;;;5029981;28;20193;-66
2022/12/10 01:24:25;;;;;;;33.17;22.00;;;5.60;99.90;;;;;;5028584;28;20205;-66
2022/12/10 01:26:51;;;;;;;33.97;22.05;;;5.60;99.90;;;;;;5031087;28;20182;-65
2022/12/10 01:29:17;;;;;;;36.30;21.50;;;5.60;99.90;;;;;;5031102;28;20189;-65
2022/12/10 01:31:43;;;;;;;36.90;23.52;;;5.60;99.90;;;;;;5030280;28;20457;-71
2022/12/10 01:34:13;;;;;;;32.28;22.00;;;5.60;99.90;;;;;;5031895;28;20581;-66
2022/12/10 01:36:44;;;;;;;34.22;20.10;;;5.60;99.90;;;;;;5030166;28;20183;-66
2022/12/10 01:39:12;;;;;;;34.42;21.13;;;5.50;99.90;;;;;;5029798;28;20176;-70
2022/12/10 01:41:42;;;;;;;35.42;21.77;;;5.60;99.90;;;;;;5020843;28;20207;-65
2022/12/10 01:44:07;;;;;;;34.22;22.60;;;5.30;99.90;;;;;;5027273;28;20175;-65
2022/12/10 01:46:42;;;;;;;34.93;21.83;;;5.40;99.90;;;;;;5031497;28;20661;-66
2022/12/10 01:49:14;;;;;;;35.53;21.73;;;5.40;99.90;;;;;;5030666;28;20178;-66
2022/12/10 01:51:42;;;;;;;38.15;23.08;;;5.50;99.90;;;;;;5030167;28;20566;-66
2022/12/10 01:54:13;;;;;;;35.25;22.05;;;5.40;99.90;;;;;;5030384;28;20268;-66
2022/12/10 01:56:44;;;;;;;32.25;21.40;;;5.50;99.90;;;;;;5027262;28;20185;-66
2022/12/10 01:59:13;;;;;;;35.83;21.60;;;5.50;99.90;;;;;;5030499;28;20217;-66
2022/12/10 02:01:48;;;;;;;38.42;24.30;;;5.50;99.90;;;;;;5031581;28;20534;-66
2022/12/10 02:04:28;;;;;;;33.42;20.95;;;5.50;99.90;;;;;;5034443;28;20166;-65
2022/12/10 02:07:01;;;;;;;36.78;21.67;;;5.50;99.90;;;;;;5032302;28;20257;-65
2022/12/10 02:09:47;;;;;;;34.13;21.73;;;5.50;99.90;;;;;;5033275;28;20182;-65
2022/12/10 02:12:28;;;;;;;37.75;22.42;;;5.50;99.90;;;;;;5035757;28;20234;-65
2022/12/10 02:14:56;;;;;;;33.88;21.25;;;5.50;99.90;;;;;;5032453;28;20178;-65
2022/12/10 02:17:45;;;;;;;35.85;20.92;;;5.50;99.90;;;;;;5033487;28;20179;-65
2022/12/10 02:20:23;;;;;;;35.05;21.25;;;5.50;99.90;;;;;;5033241;28;20174;-65
2022/12/10 02:22:54;;;;;;;41.40;21.95;;;5.50;99.90;;;;;;5033384;28;20226;-73
2022/12/10 02:25:26;;;;;;;37.80;21.55;;;5.50;99.90;;;;;;5031493;28;20218;-70
2022/12/10 02:28:13;;;;;;;34.53;22.55;;;5.40;99.90;;;;;;5032530;28;20197;-65
2022/12/10 02:30:42;;;;;;;36.83;22.08;;;5.40;99.90;;;;;;5031681;28;20206;-65
2022/12/10 02:33:08;;;;;;;38.90;23.00;;;5.40;99.90;;;;;;5034701;28;20178;-65
2022/12/10 02:35:38;;;;;;;33.22;21.63;;;5.40;99.90;;;;;;5034796;28;20190;-65
2022/12/10 02:38:12;;;;;;;35.45;21.95;;;5.50;99.90;;;;;;5033641;28;20174;-65
2022/12/10 02:40:41;;;;;;;41.83;23.45;;;5.50;99.90;;;;;;5030676;28;20198;-68
2022/12/10 02:43:08;;;;;;;35.10;21.42;;;5.50;99.90;;;;;;5034618;28;20182;-65
2022/12/10 02:45:34;;;;;;;33.75;21.50;;;5.60;99.90;;;;;;5033549;28;20365;-65
2022/12/10 02:48:03;;;;;;;34.50;21.85;;;5.70;99.90;;;;;;5031669;28;20179;-65
2022/12/10 02:50:29;;;;;;;33.40;20.70;;;5.60;99.90;;;;;;5034147;28;20182;-65
2022/12/10 02:52:54;;;;;;;26.63;18.03;;;5.60;99.90;;;;;;5033205;28;20191;-66
2022/12/10 02:55:20;;;;;;;27.80;19.60;;;5.60;99.90;;;;;;5033181;28;20174;-65
2022/12/10 02:58:27;;;;;;;30.70;20.23;;;5.60;99.90;;;;;;5032104;28;20179;-72
2022/12/10 03:01:06;;;;;;;21.85;16.38;;;5.60;99.90;;;;;;5032214;28;20403;-65
2022/12/10 03:03:42;;;;;;;22.88;15.20;;;5.60;99.90;;;;;;5033073;28;20265;-65
2022/12/10 03:06:32;;;;;;;17.05;12.40;;;5.60;99.90;;;;;;5032099;28;20627;-65
2022/12/10 03:09:03;;;;;;;18.08;12.40;;;5.60;99.90;;;;;;5030713;28;20187;-65
2022/12/10 03:11:29;;;;;;;21.17;14.23;;;5.60;99.90;;;;;;5034683;28;20290;-65
2022/12/10 03:14:03;;;;;;;17.30;13.20;;;5.60;99.90;;;;;;5031806;28;20304;-65
2022/12/10 03:16:46;;;;;;;19.17;11.60;;;5.60;99.90;;;;;;5033011;28;20478;-65
2022/12/10 03:19:18;;;;;;;18.55;12.82;;;5.50;99.70;;;;;;5033237;28;20170;-71
2022/12/10 03:21:46;;;;;;;18.50;13.85;;;5.60;99.50;;;;;;5023543;28;20186;-65
2022/12/10 03:24:13;;;;;;;17.55;11.77;;;5.50;99.40;;;;;;5032871;28;20199;-65
2022/12/10 03:26:40;;;;;;;14.98;11.32;;;5.50;98.90;;;;;;5032196;28;20193;-69
2022/12/10 03:29:10;;;;;;;15.38;11.68;;;5.50;98.80;;;;;;5032303;28;20623;-65
2022/12/10 03:31:38;;;;;;;16.10;11.75;;;5.50;97.90;;;;;;5032633;28;20294;-65
2022/12/10 03:34:05;;;;;;;21.13;13.52;;;5.50;97.90;;;;;;5031178;28;20225;-65
2022/12/10 03:36:31;;;;;;;18.23;12.77;;;5.40;97.80;;;;;;5033224;28;20571;-70
2022/12/10 03:38:58;;;;;;;17.88;12.27;;;5.30;98.00;;;;;;5032733;28;20229;-64
2022/12/10 03:41:23;;;;;;;19.70;12.85;;;5.20;98.00;;;;;;5032433;28;20186;-65
2022/12/10 03:43:55;;;;;;;15.43;11.67;;;5.30;98.40;;;;;;5032090;28;20257;-65
2022/12/10 03:46:22;;;;;;;17.67;12.27;;;5.30;98.80;;;;;;5033027;28;20189;-65
2022/12/10 03:48:48;;;;;;;21.55;14.68;;;5.20;98.90;;;;;;5032055;28;20178;-65
2022/12/10 03:51:14;;;;;;;20.60;12.97;;;5.20;99.20;;;;;;5031223;28;20218;-65
2022/12/10 03:53:41;;;;;;;18.80;12.95;;;5.20;98.90;;;;;;5021816;28;20899;-64
2022/12/10 03:56:07;;;;;;;20.98;12.98;;;5.30;98.90;;;;;;5031111;28;20175;-64
2022/12/10 03:58:32;;;;;;;20.13;12.53;;;5.30;99.10;;;;;;5032632;28;20551;-64
2022/12/10 04:00:58;;;;;;;19.43;14.03;;;5.40;99.00;;;;;;5032306;28;20174;-64
2022/12/10 04:03:24;;;;;;;19.97;13.80;;;5.30;98.40;;;;;;5032661;28;20244;-64
2022/12/10 04:05:49;;;;;;;15.70;11.93;;;5.40;97.90;;;;;;5031393;28;20189;-64
2022/12/10 04:08:15;;;;;;;18.43;12.60;;;5.30;97.80;;;;;;5032721;28;20270;-65
2022/12/10 04:10:41;;;;;;;16.10;13.07;;;5.40;98.00;;;;;;5033475;28;20293;-64
2022/12/10 04:18:35;;;;;;;16.50;12.75;;;5.50;97.20;;;;;;5032619;28;20185;-64
2022/12/10 04:29:14;;;;;;;19.98;13.27;;;5.50;97.40;;;;;;5032397;28;20189;-64
2022/12/10 04:31:40;;;;;;;17.43;12.70;;;5.50;97.50;;;;;;5030059;28;20214;-64
2022/12/10 04:34:05;;;;;;;17.50;13.53;;;5.50;97.70;;;;;;5030796;28;20179;-64
2022/12/10 04:36:31;;;;;;;19.47;12.90;;;5.40;97.40;;;;;;5033093;28;20642;-64
2022/12/10 04:38:57;;;;;;;18.37;14.10;;;5.50;97.80;;;;;;5031520;28;20178;-64
2022/12/10 04:41:22;;;;;;;21.33;14.33;;;5.30;98.00;;;;;;5031539;28;20269;-64
2022/12/10 04:43:48;;;;;;;20.00;14.80;;;5.30;98.10;;;;;;5032320;28;20174;-64
2022/12/10 04:46:13;;;;;;;19.90;14.10;;;5.40;98.40;;;;;;5032089;28;20186;-64
2022/12/10 04:48:39;;;;;;;19.40;14.50;;;5.40;99.20;;;;;;5032014;28;20175;-64
2022/12/10 04:51:05;;;;;;;22.20;14.97;;;5.40;98.60;;;;;;5032249;28;20225;-64
2022/12/10 04:53:31;;;;;;;21.23;13.90;;;5.50;98.30;;;;;;5031402;28;20193;-64
2022/12/10 04:55:56;;;;;;;16.00;13.00;;;5.50;98.10;;;;;;5030747;28;20179;-64
2022/12/10 04:58:22;;;;;;;18.77;14.90;;;5.60;97.80;;;;;;5015231;28;20181;-64
2022/12/10 05:00:47;;;;;;;18.37;14.53;;;5.60;97.50;;;;;;5030925;28;20248;-65
2022/12/10 05:03:13;;;;;;;22.10;14.87;;;5.60;97.40;;;;;;5030986;28;20185;-64
2022/12/10 05:05:39;;;;;;;18.70;13.97;;;5.60;97.00;;;;;;5031134;28;20189;-64
2022/12/10 05:08:04;;;;;;;21.03;14.23;;;5.50;97.00;;;;;;5032058;28;20253;-64
2022/12/10 05:10:30;;;;;;;18.43;14.17;;;5.50;97.00;;;;;;5030760;28;20171;-64
2022/12/10 05:12:56;;;;;;;20.77;12.80;;;5.50;97.30;;;;;;5031141;28;20202;-64
2022/12/10 05:15:24;;;;;;;19.43;13.13;;;5.50;97.10;;;;;;5032528;28;20239;-64
2022/12/10 05:17:50;;;;;;;17.77;13.63;;;5.60;97.10;;;;;;5031086;28;20182;-64
2022/12/10 05:20:15;;;;;;;21.87;14.17;;;5.60;97.10;;;;;;5031809;28;20653;-64
2022/12/10 05:25:26;;;;;;;18.88;13.85;;;5.50;96.60;;;;;;5031947;28;20190;-64
2022/12/10 05:27:51;;;;;;;20.57;15.20;;;5.40;96.80;;;;;;5030684;28;20185;-65
2022/12/10 05:30:17;;;;;;;21.83;14.53;;;5.20;96.90;;;;;;5030410;28;20179;-64
2022/12/10 05:32:43;;;;;;;18.67;13.57;;;5.00;97.70;;;;;;5031371;28;20178;-64
2022/12/10 05:35:08;;;;;;;18.37;14.30;;;5.00;98.50;;;;;;5031102;28;20404;-64
2022/12/10 05:37:34;;;;;;;19.80;15.17;;;5.00;99.00;;;;;;5035562;28;20209;-64
2022/12/10 05:40:00;;;;;;;20.43;14.53;;;5.10;99.10;;;;;;5035740;28;20217;-64
2022/12/10 05:42:25;;;;;;;18.53;15.47;;;5.10;98.90;;;;;;5035428;28;20649;-64
2022/12/10 05:44:51;;;;;;;22.00;13.60;;;5.20;99.00;;;;;;5033596;28;20658;-64
2022/12/10 05:47:17;;;;;;;19.83;14.57;;;5.20;99.20;;;;;;5036236;28;20178;-64
2022/12/10 05:49:42;;;;;;;19.20;14.57;;;5.20;98.80;;;;;;5035172;28;20221;-64
2022/12/10 05:52:08;;;;;;;22.23;15.73;;;5.30;98.90;;;;;;5031624;28;20425;-64
2022/12/10 05:54:34;;;;;;;19.83;14.07;;;5.30;98.70;;;;;;5030260;28;20191;-64
2022/12/10 05:57:00;;;;;;;20.57;14.80;;;5.20;98.60;;;;;;5034706;28;20442;-70
2022/12/10 05:59:25;;;;;;;19.40;13.77;;;4.90;98.20;;;;;;5035002;28;20412;-64
2022/12/10 06:01:51;;;;;;;20.90;14.80;;;4.90;98.70;;;;;;5034672;28;20688;-65
2022/12/10 06:04:17;;;;;;;23.70;15.80;;;5.00;99.10;;;;;;5035945;28;20202;-64
2022/12/10 06:06:43;;;;;;;23.10;15.53;;;5.00;99.10;;;;;;5034740;28;20185;-64
2022/12/10 06:09:12;;;;;;;21.63;14.50;;;5.00;99.10;;;;;;5034378;28;20513;-64
2022/12/10 06:11:38;;;;;;;20.25;14.60;;;5.00;98.80;;;;;;5034886;28;20233;-64
2022/12/10 06:14:04;;;;;;;22.07;15.50;;;5.00;99.20;;;;;;5032578;28;20195;-64
2022/12/10 06:16:29;;;;;;;20.10;14.07;;;5.10;99.50;;;;;;5034956;28;20266;-64
2022/12/10 06:18:56;;;;;;;21.77;13.97;;;5.10;99.40;;;;;;5034595;28;20177;-68
2022/12/10 06:21:22;;;;;;;21.70;15.13;;;5.10;98.90;;;;;;5035483;28;20231;-64
2022/12/10 06:23:51;;;;;;;21.37;14.30;;;5.10;98.60;;;;;;5034844;28;20618;-64
2022/12/10 06:26:20;;;;;;;19.13;12.93;;;5.10;98.90;;;;;;5033389;28;20514;-71
2022/12/10 06:28:46;;;;;;;21.73;14.77;;;5.20;99.10;;;;;;5032333;28;20532;-64
2022/12/10 06:31:13;;;;;;;19.90;14.32;;;5.20;98.70;;;;;;5033756;28;20344;-64
2022/12/10 06:33:38;;;;;;;18.00;13.73;;;5.30;98.30;;;;;;5032933;28;20236;-64
2022/12/10 06:36:06;;;;;;;19.53;14.20;;;5.30;98.00;;;;;;5034668;28;20186;-64
2022/12/10 06:38:32;;;;;;;18.42;13.90;;;5.30;98.10;;;;;;5034478;28;20182;-64
2022/12/10 06:40:58;;;;;;;22.48;15.73;;;5.40;98.20;;;;;;5033701;28;20262;-64
2022/12/10 06:43:28;;;;;;;19.33;14.33;;;5.40;97.90;;;;;;5035135;28;20270;-64
2022/12/10 06:45:54;;;;;;;19.02;14.00;;;5.40;98.00;;;;;;5031640;28;20433;-72
2022/12/10 06:48:19;;;;;;;23.77;14.47;;;5.20;96.80;;;;;;5032751;28;20179;-64
2022/12/10 06:50:45;;;;;;;21.23;14.30;;;5.10;97.90;;;;;;5033309;28;20670;-64
2022/12/10 06:53:11;;;;;;;16.83;13.07;;;5.20;97.60;;;;;;5032607;28;20186;-64
2022/12/10 06:55:38;;;;;;;21.10;14.70;;;5.20;97.10;;;;;;5032471;28;20183;-64
2022/12/10 06:58:04;;;;;;;20.42;14.35;;;5.10;97.10;;;;;;5033727;28;20187;-64
2022/12/10 07:00:30;;;;;;;19.55;13.80;;;4.70;97.50;;;;;;5031973;28;20171;-64
2022/12/10 07:02:56;;;;;;;17.98;13.55;;;4.70;98.40;;;;;;5030739;28;20190;-71
2022/12/10 07:05:22;;;;;;;18.87;13.93;;;4.70;98.20;;;;;;5032096;28;20185;-64
2022/12/10 07:07:47;;;;;;;20.70;14.67;;;4.70;97.80;;;;;;5034708;28;20627;-64
2022/12/10 07:10:15;;;;;;;30.93;18.00;;;4.70;98.60;;;;;;5033154;28;20186;-64
2022/12/10 07:12:41;;;;;;;23.00;14.40;;;4.60;98.70;;;;;;5031448;28;20617;-64
2022/12/10 07:15:08;;;;;;;21.00;13.50;;;4.60;98.80;;;;;;5030026;28;20182;-64
2022/12/10 07:17:33;;;;;;;20.67;13.77;;;4.60;98.50;;;;;;5025936;28;20178;-64
2022/12/10 07:19:59;;;;;;;20.23;13.17;;;4.70;98.60;;;;;;5031814;28;20197;-64
2022/12/10 07:22:25;;;;;;;22.87;13.90;;;4.80;98.60;;;;;;5033034;28;20241;-64
2022/12/10 07:24:50;;;;;;;16.67;12.80;;;4.80;98.60;;;;;;5031895;28;20175;-64
2022/12/10 07:27:16;;;;;;;19.40;13.00;;;4.90;97.90;;;;;;5029184;28;20187;-64
2022/12/10 07:29:43;;;;;;;17.10;13.23;;;4.90;97.60;;;;;;5028955;28;20178;-64
2022/12/10 07:32:09;;;;;;;16.92;12.40;;;5.00;97.80;;;;;;5033189;28;20264;-69
2022/12/10 07:34:35;;;;;;;18.50;13.20;;;4.90;97.70;;;;;;5033404;28;20206;-64
2022/12/10 07:37:01;;;;;;;16.17;12.77;;;5.00;97.80;;;;;;5032625;28;20186;-64
2022/12/10 07:39:26;;;;;;;19.53;13.37;;;5.00;97.80;;;;;;5033875;28;20174;-64
2022/12/10 07:41:53;;;;;;;17.73;13.90;;;4.90;96.90;;;;;;5033110;28;20214;-64
2022/12/10 07:44:20;;;;;;;18.30;12.88;;;4.90;96.90;;;;;;5030187;28;20187;-64
2022/12/10 07:46:48;;;;;;;17.48;13.15;;;4.60;97.40;;;;;;5032406;28;20178;-65
2022/12/10 07:49:14;;;;;;;20.23;14.27;;;4.40;97.70;;;;;;5022478;28;20630;-64
2022/12/10 07:51:43;;;;;;;17.23;12.93;;;4.40;98.60;;;;;;5032484;28;20246;-64
2022/12/10 07:54:09;;;;;;;18.92;13.23;;;4.40;98.50;;;;;;5032454;28;20756;-64
2022/12/10 07:56:34;;;;;;;17.07;12.93;;;4.40;98.60;;;;;;5032636;28;20232;-64
2022/12/10 07:59:00;;;;;;;19.63;13.67;;;4.40;98.90;;;;;;5031817;28;20232;-64
2022/12/10 08:01:26;;;;;;;17.97;13.57;;;4.50;99.20;;;;;;5033031;28;20182;-64
2022/12/10 08:03:56;;;;;;;18.42;13.13;;;4.70;99.20;;;;;;5033695;28;20181;-64
2022/12/10 08:06:23;;;;;;;19.85;13.32;;;4.80;98.90;;;;;;5030584;28;20175;-64
2022/12/10 08:08:49;;;;;;;17.30;12.50;;;4.80;98.40;;;;;;5033453;28;20178;-64
2022/12/10 08:11:16;;;;;;;16.08;12.45;;;4.90;98.50;;;;;;5032603;28;20210;-64
2022/12/10 08:13:43;;;;;;;16.20;12.60;;;4.90;98.00;;;;;;5032598;28;20213;-64
2022/12/10 08:16:15;;;;;;;15.00;12.88;;;5.00;97.80;;;;;;5030399;28;20182;-67
2022/12/10 08:18:42;;;;;;;19.75;13.70;;;5.00;97.70;;;;;;5033173;28;20322;-64
2022/12/10 08:21:13;;;;;;;15.98;11.93;;;4.70;97.30;;;;;;5031827;28;20187;-64
2022/12/10 08:23:39;;;;;;;16.92;12.90;;;4.70;97.60;;;;;;5030635;28;20714;-64
2022/12/10 08:26:07;;;;;;;15.48;12.48;;;4.60;97.90;;;;;;5032015;28;20189;-64
2022/12/10 08:28:34;;;;;;;19.70;13.50;;;4.40;98.20;;;;;;5032711;28;20521;-64
2022/12/10 08:31:00;;;;;;;15.57;12.00;;;4.40;98.80;;;;;;5031324;28;20210;-64
2022/12/10 08:33:25;;;;;;;16.07;11.20;;;4.50;99.30;;;;;;5031440;28;20513;-64
2022/12/10 08:35:51;;;;;;;16.73;11.73;;;4.50;99.80;;;;;;5033168;28;20472;-64
2022/12/10 08:38:17;;;;;;;16.90;12.03;;;4.60;99.30;;;;;;5029453;28;20642;-64
2022/12/10 08:40:43;;;;;;;15.00;11.43;;;4.70;99.10;;;;;;5034623;28;20506;-64
2022/12/10 08:43:08;;;;;;;14.98;11.27;;;4.80;98.80;;;;;;5034225;28;20529;-64
2022/12/10 08:45:34;;;;;;;17.70;13.07;;;4.80;98.50;;;;;;5032147;28;20178;-64
2022/12/10 08:48:03;;;;;;;14.63;11.47;;;4.80;98.20;;;;;;5031046;28;20182;-68
2022/12/10 08:50:29;;;;;;;17.33;12.70;;;4.90;98.10;;;;;;5026131;28;20597;-64
2022/12/10 08:52:54;;;;;;;14.07;11.60;;;5.00;97.90;;;;;;5032909;28;20270;-64
2022/12/10 08:55:20;;;;;;;12.53;10.90;;;5.10;97.70;;;;;;5031565;28;20899;-64
2022/12/10 08:57:46;;;;;;;15.63;12.03;;;5.10;97.60;;;;;;5031790;28;20178;-64
2022/12/10 09:00:13;;;;;;;16.10;11.47;;;5.20;97.80;;;;;;5038911;28;20183;-66
2022/12/10 09:02:39;;;;;;;16.15;11.90;;;5.20;97.50;;;;;;5031834;28;20642;-64
2022/12/10 09:05:05;;;;;;;14.37;11.03;;;5.30;97.10;;;;;;5030983;28;20183;-64
2022/12/10 09:07:31;;;;;;;14.73;11.25;;;5.30;96.80;;;;;;5031711;28;20206;-64
2022/12/10 09:09:57;;;;;;;16.00;11.70;;;5.60;96.70;;;;;;5031355;28;20213;-64
2022/12/10 09:12:23;;;;;;;15.50;11.57;;;5.70;96.20;;;;;;5031175;28;20212;-64
2022/12/10 09:14:49;;;;;;;14.90;11.90;;;5.60;95.40;;;;;;5033624;28;20512;-64
2022/12/10 09:17:15;;;;;;;16.37;13.30;;;5.60;95.60;;;;;;5033406;28;20266;-66
2022/12/10 09:19:40;;;;;;;16.92;15.23;;;5.90;99.90;;;;;;5031586;28;20171;-66
2022/12/10 09:22:06;;;;;;;16.33;14.83;;;6.90;99.90;;;;;;5031457;28;20273;-66
2022/12/10 09:24:32;;;;;;;15.43;13.60;;;7.90;99.90;;;;;;5031780;28;20550;-66
2022/12/10 09:26:57;;;;;;;16.63;12.33;;;8.60;99.90;;;;;;5031536;28;20178;-66
2022/12/10 09:29:23;;;;;;;14.90;11.90;;;9.40;99.90;;;;;;5031219;28;20177;-66
2022/12/10 09:31:52;;;;;;;13.97;12.33;;;9.90;94.30;;;;;;5030729;28;20210;-66
2022/12/10 09:34:18;;;;;;;13.73;12.30;;;10.30;93.00;;;;;;5030846;28;20183;-66
2022/12/10 09:36:45;;;;;;;14.83;13.10;;;10.80;91.80;;;;;;5031425;28;20429;-66
2022/12/10 09:39:11;;;;;;;14.40;12.60;;;11.10;90.70;;;;;;5031607;28;20514;-66
2022/12/10 09:41:58;;;;;;;14.63;13.07;;;11.50;88.50;;;;;;5030766;28;20472;-66
2022/12/10 09:44:35;;;;;;;17.17;12.73;;;11.80;86.50;;;;;;5029644;28;20232;-66
2022/12/10 09:47:05;;;;;;;14.90;13.00;;;12.00;80.20;;;;;;5031231;28;20429;-66
2022/12/10 09:49:53;;;;;;;14.47;12.90;;;12.30;79.50;;;;;;5030028;28;20428;-66
2022/12/10 09:52:22;;;;;;;15.33;12.80;;;12.50;75.70;;;;;;5039156;28;20467;-66
2022/12/10 09:54:53;;;;;;;15.10;11.17;;;12.60;74.20;;;;;;5039894;28;20443;-66
2022/12/10 09:57:33;;;;;;;13.70;12.10;;;12.80;73.70;;;;;;5030580;28;20432;-67
2022/12/10 10:00:30;;;;;;;17.80;13.00;;;12.90;72.90;;;;;;5032306;28;20397;-66
2022/12/10 10:03:01;;;;;;;14.73;13.23;;;13.00;72.10;;;;;;5027208;28;20497;-66
2022/12/10 10:05:36;;;;;;;16.33;13.43;;;13.10;70.80;;;;;;5027627;28;20461;-74
2022/12/10 10:08:05;;;;;;;16.63;13.20;;;13.20;69.90;;;;;;5030623;28;20428;-67
2022/12/10 10:10:34;;;;;;;748.97;446.93;;;13.20;70.80;;;;;;5031535;28;20441;-66
2022/12/10 10:13:08;;;;;;;71.13;42.37;;;13.30;71.10;;;;;;5030489;28;20425;-65
2022/12/10 10:15:41;;;;;;;20.90;16.43;;;13.30;69.80;;;;;;5030392;28;20436;-67
2022/12/10 10:18:38;;;;;;;13.90;12.10;;;13.40;69.60;;;;;;5029981;28;20429;-67
2022/12/10 10:21:07;;;;;;;15.27;13.17;;;13.50;68.90;;;;;;5027237;28;20452;-67
2022/12/10 10:23:33;;;;;;;16.47;13.87;;;13.50;68.30;;;;;;5032946;28;20488;-66
2022/12/10 10:26:01;;;;;;;18.33;15.00;;;13.50;68.60;;;;;;5034144;28;20490;-67
2022/12/10 10:28:27;;;;;;;17.10;15.23;;;13.50;72.80;;;;;;5032665;28;20530;-65
2022/12/10 10:30:56;;;;;;;17.80;15.07;;;13.60;76.00;;;;;;5035118;28;20873;-66
2022/12/10 10:33:22;;;;;;;17.20;15.50;;;13.30;65.60;;;;;;5034318;28;21000;-65
2022/12/10 10:35:53;;;;;;;16.10;14.23;;;12.80;62.60;;;;;;5034506;28;20528;-65
2022/12/10 10:38:26;;;;;;;18.50;14.80;;;12.20;61.90;;;;;;5035096;28;20177;-65
2022/12/10 10:40:57;;;;;;;19.77;14.90;;;11.60;62.20;;;;;;5034836;28;20436;-64
2022/12/10 10:43:24;;;;;;;17.83;15.10;;;11.00;63.30;;;;;;5032497;28;20436;-64
2022/12/10 10:46:23;;;;;;;18.47;14.70;;;10.50;64.90;;;;;;5033940;28;20408;-68
2022/12/10 10:48:49;;;;;;;19.03;15.33;;;9.90;68.00;;;;;;4972326;28;20941;-65
2022/12/10 10:51:20;;;;;;;19.70;16.30;;;9.40;70.10;;;;;;5032609;28;20472;-65
2022/12/10 10:53:50;;;;;;;21.30;16.17;;;9.00;73.20;;;;;;5034133;28;20437;-65
2022/12/10 10:56:23;;;;;;;338.07;197.47;;;8.60;75.30;;;;;;5033541;28;20404;-63
2022/12/10 10:59:01;;;;;;;159.10;85.03;;;8.20;75.40;;;;;;5036218;28;20405;-65
2022/12/10 11:01:47;;;;;;;41.80;27.37;;;7.80;77.90;;;;;;5032857;28;20728;-66
2022/12/10 11:04:15;;;;;;;24.03;16.57;;;7.50;80.50;;;;;;5039203;28;20427;-68
2022/12/10 11:06:42;;;;;;;22.03;16.20;;;7.30;82.50;;;;;;5030963;28;20438;-69
2022/12/10 11:09:17;;;;;;;22.23;17.60;;;7.10;84.10;;;;;;5031277;28;20408;-66
2022/12/10 11:11:50;;;;;;;25.43;18.37;;;6.90;85.60;;;;;;5027874;28;20524;-67
2022/12/10 11:14:41;;;;;;;29.10;19.97;;;6.80;87.90;;;;;;5031481;28;20393;-66
2022/12/10 11:17:10;;;;;;;30.57;20.23;;;6.60;90.50;;;;;;5026595;28;20433;-78
2022/12/10 11:19:54;;;;;;;29.65;20.05;;;6.50;91.60;;;;;;5014025;28;20763;-68
2022/12/10 11:22:32;;;;;;;31.40;21.27;;;6.30;92.80;;;;;;5029853;28;20560;-66
2022/12/10 11:24:59;;;;;;;33.55;21.83;;;6.20;94.10;;;;;;5025868;28;20194;-66
2022/12/10 11:27:59;;;;;;;32.58;21.90;;;6.10;94.70;;;;;;5029447;28;20179;-67
2022/12/10 11:30:26;;;;;;;34.88;20.60;;;6.10;95.20;;;;;;5030521;28;20189;-65
2022/12/10 11:33:28;;;;;;;29.85;21.52;;;5.90;95.90;;;;;;5013775;28;20262;-66
2022/12/10 11:36:21;;;;;;;36.75;21.92;;;5.90;96.20;;;;;;5031040;28;20205;-65
2022/12/10 11:39:21;;;;;;;36.72;22.10;;;5.80;96.30;;;;;;5031182;28;20182;-74
2022/12/10 11:42:10;;;;;;;32.55;21.33;;;5.70;96.80;;;;;;4998165;28;20234;-68
2022/12/10 11:45:01;;;;;;;40.97;22.48;;;5.50;97.30;;;;;;5033204;28;20682;-65
2022/12/10 11:47:56;;;;;;;37.15;21.33;;;5.50;97.60;;;;;;5033511;28;20166;-65
2022/12/10 11:50:27;;;;;;;37.70;22.23;;;5.50;97.50;;;;;;5013024;28;20580;-66
2022/12/10 11:53:11;;;;;;;179.43;89.07;;;5.50;98.00;;;;;;5034243;28;20262;-65
2022/12/10 11:55:49;;;;;;;61.80;35.72;;;5.50;98.30;;;;;;5038577;28;20179;-66
2022/12/10 11:58:29;;;;;;;38.05;22.77;;;5.40;98.70;;;;;;5032094;28;20170;-67
2022/12/10 12:01:00;;;;;;;34.50;21.00;;;5.50;98.60;;;;;;5028287;28;20193;-68
2022/12/10 12:04:00;;;;;;;33.88;20.92;;;5.40;98.40;;;;;;5030581;28;20594;-67
2022/12/10 12:06:34;;;;;;;39.67;21.20;;;5.40;98.40;;;;;;5011969;28;20244;-67
2022/12/10 12:09:28;;;;;;;31.92;20.50;;;5.50;98.30;;;;;;5030815;28;20178;-69
2022/12/10 12:12:25;;;;;;;34.20;20.23;;;5.50;98.20;;;;;;5029580;28;20264;-69
2022/12/10 12:15:01;;;;;;;37.35;22.42;;;5.40;97.90;;;;;;5031824;28;20197;-69
2022/12/10 12:17:33;;;;;;;36.40;21.83;;;5.40;98.30;;;;;;5030822;28;20192;-66
2022/12/10 12:20:23;;;;;;;40.65;23.92;;;5.40;98.50;;;;;;5050477;28;20206;-66
2022/12/10 12:22:59;;;;;;;38.67;21.20;;;5.40;98.60;;;;;;5013348;28;20714;-66
2022/12/10 12:25:34;;;;;;;43.33;23.27;;;5.50;98.90;;;;;;5026204;28;20174;-66
2022/12/10 12:28:31;;;;;;;33.83;19.95;;;5.40;99.10;;;;;;5028554;28;20204;-66
2022/12/10 12:31:21;;;;;;;36.33;21.92;;;5.40;99.10;;;;;;5028739;28;20214;-67
2022/12/10 12:33:54;;;;;;;40.05;22.73;;;5.40;98.90;;;;;;5028921;28;20197;-66
2022/12/10 12:36:30;;;;;;;34.92;19.92;;;5.50;99.00;;;;;;5031468;28;20252;-66
2022/12/10 12:39:27;;;;;;;35.90;21.35;;;5.50;99.20;;;;;;5031702;28;20186;-66
2022/12/10 12:42:03;;;;;;;37.50;21.67;;;5.50;99.50;;;;;;5032055;28;20162;-66
2022/12/10 12:44:49;;;;;;;38.60;22.50;;;5.50;98.80;;;;;;5031955;28;20174;-66
2022/12/10 12:47:21;;;;;;;38.35;24.13;;;5.50;98.70;;;;;;5031095;28;20539;-66
2022/12/10 12:49:48;;;;;;;36.85;21.42;;;5.50;99.30;;;;;;5030917;28;20182;-66
2022/12/10 12:52:22;;;;;;;41.13;23.00;;;5.60;99.30;;;;;;5031449;28;20565;-66
2022/12/10 12:54:49;;;;;;;35.80;22.92;;;5.50;99.40;;;;;;5032825;28;20738;-66
2022/12/10 12:57:18;;;;;;;34.55;19.88;;;5.50;99.10;;;;;;5031329;28;20235;-66
2022/12/10 13:00:01;;;;;;;33.97;20.90;;;5.60;98.80;;;;;;5030848;28;20174;-66
2022/12/10 13:02:39;;;;;;;36.20;22.05;;;5.60;98.60;;;;;;5032229;28;20178;-66
2022/12/10 13:05:12;;;;;;;42.95;21.95;;;5.60;98.50;;;;;;5012985;28;20164;-66
2022/12/10 13:07:37;;;;;;;39.10;21.90;;;5.70;98.20;;;;;;5027482;28;20265;-66